Time;durP1;ratioP1;P1;durP2;ratioP2;P2;SDS_P1;SDS_P2;PMS_P1;PMS_P2;Temp;Humidity;BMP_temperature;BMP_pressure;BME280_temperature;BME280_humidity;BME280_pressure;Samples;Min_cycle;Max_cycle;Signal;HPM_P1;HPM_P2
2024/04/13 00:01:25;;;;;;;16.90;5.60;;;;;;;12.46;48.80;101299.73;109077;1250;106356;-71
2024/04/13 00:04:10;;;;;;;12.10;5.40;;;;;;;12.44;48.93;101298.62;108836;1250;96309;-71
2024/04/13 00:07:01;;;;;;;15.90;5.20;;;;;;;12.43;49.17;101296.98;108919;1251;96260;-71
2024/04/13 00:09:53;;;;;;;18.00;5.60;;;;;;;12.44;49.35;101297.36;108976;1249;110461;-71
2024/04/13 00:12:44;;;;;;;14.00;5.40;;;;;;;12.48;49.33;101295.44;108983;1250;96311;-72
2024/04/13 00:15:34;;;;;;;16.20;5.50;;;;;;;12.42;49.53;101297.84;108995;1251;106375;-72
2024/04/13 00:18:26;;;;;;;13.50;4.90;;;;;;;12.31;49.42;101292.45;108992;1251;96203;-71
2024/04/13 00:21:16;;;;;;;22.30;5.90;;;;;;;12.23;49.67;101288.98;109002;1249;96233;-71
2024/04/13 00:24:09;;;;;;;19.70;5.80;;;;;;;12.16;49.83;101285.73;109093;1249;117451;-72
2024/04/13 00:27:01;;;;;;;13.20;5.00;;;;;;;12.16;49.92;101283.79;108905;1250;96861;-71
2024/04/13 00:29:52;;;;;;;14.40;5.60;;;;;;;12.19;50.04;101277.42;108982;1251;107705;-72
2024/04/13 00:32:36;;;;;;;19.90;5.40;;;;;;;12.20;50.26;101276.05;108956;1250;96260;-72
2024/04/13 00:35:27;;;;;;;17.40;5.70;;;;;;;12.19;50.14;101272.16;109008;1251;96255;-71
2024/04/13 00:38:18;;;;;;;13.70;5.10;;;;;;;12.20;50.23;101266.05;108987;1251;111364;-71
2024/04/13 00:41:09;;;;;;;17.40;5.50;;;;;;;12.19;50.38;101267.09;109033;1251;96284;-71
2024/04/13 00:44:00;;;;;;;13.40;5.60;;;;;;;12.14;50.28;101265.98;108978;1250;106319;-71
2024/04/13 00:46:43;;;;;;;15.40;5.00;;;;;;;12.08;50.44;101263.29;109014;1250;96201;-71
2024/04/13 00:49:36;;;;;;;16.90;5.90;;;;;;;12.09;50.44;101265.06;108932;1250;96286;-72
2024/04/13 00:52:28;;;;;;;15.70;6.00;;;;;;;12.14;50.57;101262.98;108910;1250;111318;-72
2024/04/13 00:55:19;;;;;;;13.60;5.40;;;;;;;12.20;50.82;101262.73;109013;1251;100126;-72
2024/04/13 00:58:12;;;;;;;15.40;6.30;;;;;;;12.21;50.87;101259.98;108929;1250;106331;-72
2024/04/13 01:01:03;;;;;;;13.20;5.20;;;;;;;12.16;50.86;101263.61;108989;1249;96229;-71
2024/04/13 01:03:54;;;;;;;17.20;5.90;;;;;;;12.09;50.96;101265.94;109023;1251;96525;-72
2024/04/13 01:06:49;;;;;;;17.40;5.60;;;;;;;12.04;50.99;101271.71;108940;1250;112685;-72
2024/04/13 01:09:41;;;;;;;17.20;5.70;;;;;;;11.99;51.14;101273.08;108990;1250;96242;-72
2024/04/13 01:12:32;;;;;;;16.80;5.90;;;;;;;11.95;51.09;101275.02;108905;1250;106175;-72
2024/04/13 01:15:16;;;;;;;13.60;5.50;;;;;;;11.92;51.15;101276.29;108953;1250;96275;-72
2024/04/13 01:18:10;;;;;;;18.80;6.00;;;;;;;11.87;51.41;101269.73;109011;1250;96401;-72
2024/04/13 01:21:01;;;;;;;17.20;6.10;;;;;;;11.81;51.30;101266.16;109000;1251;111740;-71
2024/04/13 01:23:57;;;;;;;18.20;5.70;;;;;;;11.77;51.50;101268.80;108984;1251;96849;-72
2024/04/13 01:26:50;;;;;;;15.40;5.40;;;;;;;11.74;51.64;101264.98;109015;1251;106400;-72
2024/04/13 01:29:36;;;;;;;18.50;5.90;;;;;;;11.70;51.64;101259.19;108950;1251;96890;-72
2024/04/13 01:32:27;;;;;;;18.80;5.80;;;;;;;11.63;51.92;101259.61;108970;1250;96586;-71
2024/04/13 01:35:19;;;;;;;18.30;5.60;;;;;;;11.60;51.96;101260.16;108931;1251;111363;-72
2024/04/13 01:38:10;;;;;;;17.80;6.30;;;;;;;11.57;51.92;101264.41;108978;1251;96290;-72
2024/04/13 01:41:01;;;;;;;12.70;5.30;;;;;;;11.52;52.00;101266.30;108866;1251;107626;-72
2024/04/13 01:43:52;;;;;;;17.00;5.60;;;;;;;11.46;52.19;101267.42;108929;1250;96331;-72
2024/04/13 01:46:43;;;;;;;20.70;5.90;;;;;;;11.41;52.53;101262.30;108912;1251;96274;-72
2024/04/13 01:49:34;;;;;;;17.30;5.80;;;;;;;11.41;52.37;101262.85;108873;1251;111208;-72
2024/04/13 01:52:25;;;;;;;16.80;5.60;;;;;;;11.38;52.57;101264.98;108990;1251;96195;-73
2024/04/13 01:55:16;;;;;;;18.50;6.20;;;;;;;11.33;52.97;101268.27;108956;1251;106371;-71
2024/04/13 01:58:07;;;;;;;15.50;5.90;;;;;;;11.30;52.88;101267.61;108949;1251;96302;-72
2024/04/13 02:00:50;;;;;;;18.80;5.70;;;;;;;11.26;53.32;101272.33;109016;1251;97012;-71
2024/04/13 02:03:41;;;;;;;13.10;5.30;;;;;;;11.24;53.43;101271.37;108950;1250;112925;-71
2024/04/13 02:06:32;;;;;;;16.90;5.30;;;;;;;11.28;53.41;101267.52;108881;1251;96304;-71
2024/04/13 02:09:23;;;;;;;15.80;5.90;;;;;;;11.27;53.59;101268.52;108947;1250;106772;-71
2024/04/13 02:12:14;;;;;;;16.00;5.60;;;;;;;11.26;53.40;101266.20;108916;1250;96250;-71
2024/04/13 02:15:06;;;;;;;15.20;5.60;;;;;;;11.26;53.70;101270.56;109053;1250;96395;-72
2024/04/13 02:17:57;;;;;;;15.60;5.90;;;;;;;11.22;53.76;101269.70;108971;1251;111777;-73
2024/04/13 02:20:30;;;;;;;20.40;5.90;;;;;;;11.18;54.10;101266.36;109012;1251;96242;-72
2024/04/13 02:23:21;;;;;;;16.60;5.80;;;;;;;11.12;54.18;101269.96;108808;1249;105458;-72
2024/04/13 02:26:13;;;;;;;14.50;5.70;;;;;;;11.10;54.58;101271.41;108876;1249;96247;-72
2024/04/13 02:29:04;;;;;;;19.50;6.60;;;;;;;11.09;54.53;101271.23;108997;1253;96235;-72
2024/04/13 02:31:44;;;;;;;17.70;5.90;;;;;;;11.07;54.58;101273.39;108975;1251;110125;-72
2024/04/13 02:34:36;;;;;;;16.60;6.00;;;;;;;11.05;54.66;101274.52;108963;1249;96215;-73
2024/04/13 02:37:27;;;;;;;18.60;6.70;;;;;;;11.02;54.81;101271.08;108946;1251;106350;-73
2024/04/13 02:40:10;;;;;;;;;;;;;;;10.98;54.99;101266.72;109013;1251;96279;-70
2024/04/13 02:43:01;;;;;;;17.00;6.50;;;;;;;10.95;55.04;101264.77;108995;1253;96240;-72
2024/04/13 02:45:53;;;;;;;15.90;5.60;;;;;;;10.95;55.42;101265.51;108939;1250;111315;-72
2024/04/13 02:48:47;;;;;;;18.90;6.30;;;;;;;10.95;55.35;101270.06;108973;1251;96947;-73
2024/04/13 02:51:38;;;;;;;16.90;6.50;;;;;;;10.93;55.46;101275.23;108954;1251;106393;-73
2024/04/13 02:54:29;;;;;;;17.10;6.90;;;;;;;10.93;55.39;101277.64;108948;1251;96312;-72
2024/04/13 02:57:20;;;;;;;19.60;6.40;;;;;;;10.91;55.79;101280.69;108992;1251;96908;-72
2024/04/13 03:00:13;;;;;;;17.00;6.60;;;;;;;10.85;55.92;101287.58;108963;1251;111050;-73
2024/04/13 03:03:05;;;;;;;15.90;6.40;;;;;;;10.81;56.13;101290.05;108957;1251;96250;-73
2024/04/13 03:06:03;;;;;;;19.00;6.60;;;;;;;10.75;56.35;101292.90;108920;1250;106299;-73
2024/04/13 03:08:54;;;;;;;18.80;6.10;;;;;;;10.69;56.23;101294.39;108884;1251;96849;-73
2024/04/13 03:11:45;;;;;;;16.60;6.50;;;;;;;10.70;56.61;101293.02;108963;1251;96678;-72
2024/04/13 03:14:36;;;;;;;15.60;6.60;;;;;;;10.67;57.10;101292.37;108990;1249;111912;-72
2024/04/13 03:17:27;;;;;;;14.50;6.00;;;;;;;10.68;56.73;101291.17;108973;1251;96891;-72
2024/04/13 03:20:18;;;;;;;16.80;6.30;;;;;;;10.67;56.76;101290.59;108855;1250;106384;-72
2024/04/13 03:23:09;;;;;;;17.40;6.30;;;;;;;10.67;56.85;101288.48;108987;1253;96695;-72
2024/04/13 03:26:00;;;;;;;18.10;6.70;;;;;;;10.68;57.02;101287.51;108976;1251;96249;-72
2024/04/13 03:28:51;;;;;;;15.70;6.00;;;;;;;10.68;57.20;101289.96;108884;1251;117146;-73
2024/04/13 03:31:42;;;;;;;16.70;5.80;;;;;;;10.67;57.29;101282.39;108941;1250;96442;-73
2024/04/13 03:34:33;;;;;;;16.30;5.80;;;;;;;10.66;57.25;101288.13;108835;1250;106476;-70
2024/04/13 03:37:24;;;;;;;13.50;5.50;;;;;;;10.68;57.58;101285.39;108921;1251;96209;-70
2024/04/13 03:40:15;;;;;;;14.20;5.60;;;;;;;10.69;57.55;101285.11;109015;1253;96217;-70
2024/04/13 03:43:06;;;;;;;15.20;5.70;;;;;;;10.70;57.82;101283.41;108911;1251;111379;-70
2024/04/13 03:45:58;;;;;;;18.60;6.30;;;;;;;10.75;58.20;101286.96;109049;1250;96261;-70
2024/04/13 03:48:49;;;;;;;20.20;6.00;;;;;;;10.79;58.07;101285.93;108903;1251;106378;-70
2024/04/13 03:51:39;;;;;;;19.40;5.80;;;;;;;10.81;58.06;101288.98;108847;1251;96309;-70
2024/04/13 03:54:30;;;;;;;19.40;6.40;;;;;;;10.84;58.23;101287.90;108897;1250;96297;-70
2024/04/13 03:57:21;;;;;;;17.40;5.90;;;;;;;10.89;58.24;101288.16;108939;1250;111385;-70
2024/04/13 04:00:14;;;;;;;18.30;6.40;;;;;;;10.93;58.00;101287.98;109020;1250;96880;-70
2024/04/13 04:03:03;;;;;;;18.60;6.60;;;;;;;10.94;58.00;101285.76;108982;1251;106490;-70
2024/04/13 04:05:55;;;;;;;17.10;6.70;;;;;;;10.96;58.55;101288.13;109052;1249;96215;-70
2024/04/13 04:08:46;;;;;;;14.90;6.00;;;;;;;10.99;58.32;101282.99;108843;1251;96223;-70
2024/04/13 04:11:36;;;;;;;18.70;6.80;;;;;;;11.02;58.61;101282.46;108928;1250;111401;-70
2024/04/13 04:14:27;;;;;;;15.20;5.80;;;;;;;11.06;58.61;101284.20;108972;1251;96575;-70
2024/04/13 04:17:18;;;;;;;16.00;6.10;;;;;;;11.09;58.92;101286.42;108966;1249;106331;-70
2024/04/13 04:20:03;;;;;;;14.70;6.40;;;;;;;11.12;58.93;101291.85;108919;1250;96264;-71
2024/04/13 04:22:45;;;;;;;;;;;;;;;11.17;58.93;101293.45;108942;1249;96623;-71
2024/04/13 04:25:36;;;;;;;16.60;6.20;;;;;;;11.21;59.17;101290.14;108971;1251;111345;-71
2024/04/13 04:28:27;;;;;;;16.60;6.00;;;;;;;11.28;58.89;101289.23;108971;1251;97317;-71
2024/04/13 04:31:20;;;;;;;17.40;5.90;;;;;;;11.34;58.85;101286.17;108965;1251;107012;-71
2024/04/13 04:34:11;;;;;;;14.50;5.90;;;;;;;11.40;58.88;101290.48;108965;1251;96941;-71
2024/04/13 04:37:02;;;;;;;15.20;5.90;;;;;;;11.43;58.98;101291.66;108973;1251;96289;-71
2024/04/13 04:39:52;;;;;;;15.10;5.90;;;;;;;11.44;59.04;101292.77;108835;1251;111386;-71
2024/04/13 04:42:43;;;;;;;17.60;6.10;;;;;;;11.47;59.16;101288.17;108952;1251;96956;-71
2024/04/13 04:45:36;;;;;;;19.10;6.20;;;;;;;11.50;59.10;101292.86;108967;1250;106365;-71
2024/04/13 04:48:27;;;;;;;16.20;5.90;;;;;;;11.54;59.27;101290.23;109016;1251;96275;-71
2024/04/13 04:51:19;;;;;;;17.30;6.30;;;;;;;11.61;59.24;101289.09;109030;1250;96517;-71
2024/04/13 04:54:10;;;;;;;15.40;5.90;;;;;;;11.66;59.45;101291.78;108966;1251;111358;-71
2024/04/13 04:56:53;;;;;;;15.70;5.80;;;;;;;11.72;59.68;101295.37;109001;1251;96272;-71
2024/04/13 04:59:44;;;;;;;14.70;5.90;;;;;;;11.79;59.45;101297.44;108984;1250;107624;-71
2024/04/13 05:02:37;;;;;;;13.60;5.50;;;;;;;11.88;59.61;101301.50;108920;1250;96225;-71
2024/04/13 05:05:28;;;;;;;18.70;6.30;;;;;;;11.99;59.65;101304.98;108988;1251;96286;-71
2024/04/13 05:08:19;;;;;;;15.70;6.10;;;;;;;12.11;59.48;101310.92;108971;1249;111355;-72
2024/04/13 05:11:10;;;;;;;16.00;5.90;;;;;;;12.24;59.53;101306.39;109074;1251;100170;-71
2024/04/13 05:14:01;;;;;;;15.30;5.70;;;;;;;12.36;59.64;101308.48;108956;1251;106214;-70
2024/04/13 05:16:43;;;;;;;15.80;5.70;;;;;;;12.49;59.63;101308.30;108928;1250;96749;-71
2024/04/13 05:19:35;;;;;;;17.00;6.20;;;;;;;12.63;59.69;101306.58;108909;1250;96780;-71
2024/04/13 05:22:26;;;;;;;19.80;7.20;;;;;;;12.78;59.84;101305.25;108940;1249;111376;-71
2024/04/13 05:25:17;;;;;;;18.20;6.20;;;;;;;12.94;59.63;101305.67;109024;1249;96547;-71
2024/04/13 05:28:09;;;;;;;15.30;6.30;;;;;;;13.12;59.67;101304.96;109016;1250;106389;-71
2024/04/13 05:31:01;;;;;;;18.00;7.30;;;;;;;13.27;59.66;101310.80;109033;1251;96327;-71
2024/04/13 05:33:52;;;;;;;16.30;6.60;;;;;;;13.42;59.67;101304.89;108995;1249;96215;-71
2024/04/13 05:36:45;;;;;;;16.30;6.30;;;;;;;13.54;59.58;101298.29;109041;1249;111547;-71
2024/04/13 05:39:36;;;;;;;16.70;6.70;;;;;;;13.62;59.55;101297.53;109053;1249;96909;-71
2024/04/13 05:42:27;;;;;;;21.30;6.70;;;;;;;13.73;59.47;101298.61;108913;1249;106398;-71
2024/04/13 05:45:12;;;;;;;14.20;5.90;;;;;;;13.85;59.45;101291.47;109076;1250;96202;-71
2024/04/13 05:48:03;;;;;;;22.20;6.40;;;;;;;13.97;59.37;101294.54;108994;1251;96242;-71
2024/04/13 05:50:58;;;;;;;17.40;6.60;;;;;;;14.11;59.29;101294.30;108835;1250;110449;-71
2024/04/13 05:53:40;;;;;;;17.80;6.10;;;;;;;14.21;59.27;101297.63;108963;1250;96867;-70
2024/04/13 05:56:22;;;;;;;17.10;6.20;;;;;;;14.27;59.12;101300.45;108888;1249;107487;-71
2024/04/13 05:59:13;;;;;;;17.00;6.20;;;;;;;14.35;59.11;101300.55;108927;1249;96236;-70
2024/04/13 06:01:57;;;;;;;19.50;6.00;;;;;;;14.42;59.04;101300.97;108963;1251;96272;-71
2024/04/13 06:04:50;;;;;;;16.60;5.40;;;;;;;14.54;58.92;101302.59;108918;1250;111139;-70
2024/04/13 06:07:40;;;;;;;13.30;5.90;;;;;;;14.65;58.89;101301.05;109065;1250;96584;-70
2024/04/13 06:10:23;;;;;;;15.90;5.90;;;;;;;14.80;58.88;101299.71;109077;1249;105380;-71
2024/04/13 06:13:16;;;;;;;13.40;5.00;;;;;;;14.93;58.71;101297.14;108995;1249;96850;-70
2024/04/13 06:16:07;;;;;;;17.30;5.60;;;;;;;15.08;58.67;101298.82;108961;1251;96189;-71
2024/04/13 06:18:58;;;;;;;13.10;5.20;;;;;;;15.23;58.65;101296.98;108997;1251;111324;-71
2024/04/13 06:21:50;;;;;;;11.20;5.20;;;;;;;15.39;58.60;101293.36;104881;1250;96347;-70
2024/04/13 06:24:41;;;;;;;15.30;4.90;;;;;;;15.55;58.47;101291.88;109046;1250;96296;-71
2024/04/13 06:27:35;;;;;;;13.70;5.10;;;;;;;15.75;58.23;101293.85;109113;1250;96673;-70
2024/04/13 06:30:26;;;;;;;12.80;4.90;;;;;;;15.93;58.06;101297.52;108977;1250;111552;-70
2024/04/13 06:33:17;;;;;;;12.80;4.60;;;;;;;16.12;58.04;101289.02;108958;1250;100012;-71
2024/04/13 06:36:08;;;;;;;14.00;4.30;;;;;;;16.31;57.81;101283.14;108922;1250;106153;-71
2024/04/13 06:38:59;;;;;;;13.70;4.90;;;;;;;16.52;57.69;101278.00;108947;1250;96324;-71
2024/04/13 06:41:50;;;;;;;14.40;4.70;;;;;;;16.73;57.25;101279.19;109045;1249;96275;-71
2024/04/13 06:44:41;;;;;;;12.90;4.80;;;;;;;16.91;57.07;101283.15;109047;1249;111400;-70
2024/04/13 06:47:32;;;;;;;12.30;4.80;;;;;;;17.12;56.69;101280.95;109042;1249;96369;-71
2024/04/13 06:50:23;;;;;;;13.00;4.60;;;;;;;17.31;56.14;101274.83;108931;1250;106241;-70
2024/04/13 06:53:14;;;;;;;11.40;4.70;;;;;;;17.50;56.19;101271.83;108918;1250;97150;-70
2024/04/13 06:56:06;;;;;;;13.10;4.30;;;;;;;17.64;55.43;101272.97;108994;1249;96874;-71
2024/04/13 06:58:57;;;;;;;13.10;4.50;;;;;;;17.79;55.86;101271.84;108979;1250;111345;-71
2024/04/13 07:01:50;;;;;;;12.50;4.80;;;;;;;17.96;55.97;101268.28;108943;1250;96756;-71
2024/04/13 07:04:41;;;;;;;12.30;4.30;;;;;;;18.14;55.79;101265.05;109054;1250;105740;-71
2024/04/13 07:07:24;;;;;;;9.80;4.40;;;;;;;18.31;55.80;101266.40;109054;1249;96873;-70
2024/04/13 07:10:15;;;;;;;11.90;4.40;;;;;;;18.45;55.67;101263.07;109016;1250;96224;-71
2024/04/13 07:13:08;;;;;;;14.70;5.30;;;;;;;18.59;55.16;101260.09;109019;1250;111368;-71
2024/04/13 07:16:00;;;;;;;11.80;4.50;;;;;;;18.81;54.94;101264.14;109008;1250;96703;-71
2024/04/13 07:18:42;;;;;;;;;;;;;;;19.02;54.64;101267.45;108988;1249;106185;-71
2024/04/13 07:21:33;;;;;;;11.30;3.90;;;;;;;19.22;54.00;101261.86;108989;1250;96236;-71
2024/04/13 07:24:24;;;;;;;12.30;4.90;;;;;;;19.38;53.77;101257.61;109033;1250;96324;-70
2024/04/13 07:27:05;;;;;;;15.00;4.90;;;;;;;19.52;54.04;101255.98;108839;1250;111905;-71
2024/04/13 07:29:56;;;;;;;13.60;4.70;;;;;;;19.68;53.91;101260.77;109070;1249;96299;-71
2024/04/13 07:32:47;;;;;;;12.20;4.80;;;;;;;19.87;53.60;101249.27;109020;1249;106397;-70
2024/04/13 07:35:30;;;;;;;11.30;4.30;;;;;;;20.01;52.88;101245.86;109005;1249;96802;-71
2024/04/13 07:38:21;;;;;;;11.50;4.40;;;;;;;20.08;52.31;101243.42;108995;1249;96319;-71
2024/04/13 07:41:05;;;;;;;13.50;4.70;;;;;;;20.11;52.11;101241.84;109002;1249;113329;-71
2024/04/13 07:43:55;;;;;;;12.70;4.20;;;;;;;20.21;51.96;101236.60;109016;1250;97620;-70
2024/04/13 07:46:46;;;;;;;14.20;5.00;;;;;;;20.27;51.11;101233.98;108943;1249;106484;-71
2024/04/13 07:49:36;;;;;;;8.00;4.20;;;;;;;20.37;51.61;101235.66;108854;1250;96217;-71
2024/04/13 07:52:27;;;;;;;15.30;4.20;;;;;;;20.52;51.61;101233.98;109014;1249;96239;-71
2024/04/13 07:55:19;;;;;;;10.20;4.50;;;;;;;20.66;51.14;101232.85;108813;1250;117530;-71
2024/04/13 07:58:10;;;;;;;19.10;4.90;;;;;;;20.75;50.53;101230.95;108799;1250;96260;-70
2024/04/13 08:01:01;;;;;;;9.50;4.00;;;;;;;20.88;50.95;101229.77;108800;1250;106260;-71
2024/04/13 08:03:52;;;;;;;12.00;4.00;;;;;;;21.07;50.62;101228.97;108841;1250;96275;-71
2024/04/13 08:06:25;;;;;;;12.70;4.70;;;;;;;21.26;50.28;101226.00;108946;1250;96868;-70
2024/04/13 08:09:07;;;;;;;9.00;3.60;;;;;;;21.43;49.97;101222.48;108949;1250;112629;-71
2024/04/13 08:11:58;;;;;;;10.20;4.20;;;;;;;21.46;49.78;101225.52;109032;1250;96254;-71
2024/04/13 08:14:39;;;;;;;8.70;3.90;;;;;;;21.40;49.16;101219.27;108883;1250;107602;-71
2024/04/13 08:17:30;;;;;;;8.10;3.80;;;;;;;21.41;49.06;101213.95;108968;1249;96852;-71
2024/04/13 08:20:21;;;;;;;11.00;3.90;;;;;;;21.55;48.92;101214.16;109016;1249;96260;-70
2024/04/13 08:23:13;;;;;;;7.20;3.70;;;;;;;21.80;48.42;101213.49;108946;1250;111383;-70
2024/04/13 08:26:05;;;;;;;11.60;3.60;;;;;;;22.06;47.84;101204.95;108963;1250;100640;-71
2024/04/13 08:28:44;;;;;;;7.70;3.20;;;;;;;22.16;47.66;101202.27;108960;1250;106380;-70
2024/04/13 08:31:24;;;;;;;7.90;3.70;;;;;;;22.23;47.39;101201.38;108906;1249;96561;-70
2024/04/13 08:33:57;;;;;;;;;;;;;;;22.38;46.93;101201.92;108963;1250;96227;-70
2024/04/13 08:36:48;;;;;;;6.70;3.20;;;;;;;22.55;46.62;101200.99;108916;1250;116592;-71
2024/04/13 08:39:19;;;;;;;8.50;3.00;;;;;;;22.51;45.57;101199.93;108858;1250;96697;-71
2024/04/13 08:42:11;;;;;;;7.60;3.20;;;;;;;22.36;46.10;101199.25;108930;1250;106320;-72
2024/04/13 08:45:05;;;;;;;7.10;3.40;;;;;;;22.22;45.80;101196.73;108888;1250;96927;-72
2024/04/13 08:47:47;;;;;;;5.00;3.00;;;;;;;22.10;45.52;101196.75;108818;1250;96678;-72
2024/04/13 08:50:18;;;;;;;9.60;3.20;;;;;;;22.05;45.35;101196.41;108973;1250;111332;-73
2024/04/13 08:52:51;;;;;;;6.70;2.90;;;;;;;22.01;45.23;101188.04;108913;1250;96245;-72
2024/04/13 08:55:33;;;;;;;;;;;;;;;21.93;45.04;101187.86;108920;1249;106379;-72
2024/04/13 08:58:04;;;;;;;7.20;2.90;;;;;;;21.88;44.95;101184.65;108792;1251;96313;-72
2024/04/13 09:00:36;;;;;;;4.30;2.70;;;;;;;21.85;44.57;101181.80;108975;1250;96226;-73
2024/04/13 09:03:15;;;;;;;9.60;3.10;;;;;;;21.79;44.60;101185.73;108983;1250;111341;-72
2024/04/13 09:05:49;;;;;;;6.30;3.20;;;;;;;21.67;44.85;101188.02;109041;1249;96696;-70
2024/04/13 09:08:25;;;;;;;7.60;3.10;;;;;;;21.61;44.71;101185.88;108786;1249;105380;-70
2024/04/13 09:11:04;;;;;;;5.80;3.30;;;;;;;21.66;44.56;101181.44;108879;1249;96660;-69
2024/04/13 09:13:55;;;;;;;7.10;3.10;;;;;;;21.75;44.51;101180.02;108954;1249;96944;-70
2024/04/13 09:16:29;;;;;;;4.70;2.90;;;;;;;21.87;44.60;101172.90;108942;1250;111336;-70
2024/04/13 09:19:12;;;;;;;6.00;3.10;;;;;;;22.06;44.39;101174.48;108974;1250;96261;-73
2024/04/13 09:21:46;;;;;;;5.60;2.80;;;;;;;22.13;44.11;101171.81;108942;1250;107725;-70
2024/04/13 09:24:42;;;;;;;8.40;3.10;;;;;;;22.25;44.31;101163.23;108921;1249;96502;-70
2024/04/13 09:27:20;;;;;;;5.80;2.60;;;;;;;22.53;44.17;101158.74;108828;1251;96302;-70
2024/04/13 09:29:53;;;;;;;7.10;2.70;;;;;;;22.76;43.76;101155.44;108937;1250;111399;-70
2024/04/13 09:32:33;;;;;;;7.80;2.90;;;;;;;22.93;43.58;101153.59;108939;1250;96660;-71
2024/04/13 09:35:23;;;;;;;6.70;2.80;;;;;;;22.88;42.23;101147.02;108996;1249;107909;-71
2024/04/13 09:38:03;;;;;;;5.60;2.90;;;;;;;22.80;42.49;101141.87;108860;1250;96648;-71
2024/04/13 09:40:43;;;;;;;4.90;2.70;;;;;;;22.89;42.87;101140.58;108892;1251;96649;-71
2024/04/13 09:43:26;;;;;;;4.00;2.70;;;;;;;23.07;42.43;101135.14;108964;1250;111340;-71
2024/04/13 09:46:18;;;;;;;9.30;3.00;;;;;;;23.18;41.89;101133.13;108899;1251;97415;-71
2024/04/13 09:48:49;;;;;;;6.80;3.00;;;;;;;23.09;42.26;101133.53;108963;1250;106043;-71
2024/04/13 09:51:31;;;;;;;10.00;3.00;;;;;;;23.03;41.96;101130.52;108924;1249;96280;-71
2024/04/13 09:54:02;;;;;;;6.70;3.00;;;;;;;22.93;41.86;101137.16;108963;1249;96276;-71
2024/04/13 09:56:38;;;;;;;5.30;2.80;;;;;;;22.94;41.95;101129.30;108970;1250;112508;-71
2024/04/13 09:59:10;;;;;;;7.00;3.10;;;;;;;23.13;42.19;101117.98;109051;1249;96844;-71
2024/04/13 10:01:41;;;;;;;4.90;3.10;;;;;;;23.33;41.19;101118.40;108882;1249;106292;-71
2024/04/13 10:04:12;;;;;;;6.20;3.00;;;;;;;23.30;41.40;101112.35;108987;1250;96714;-70
2024/04/13 10:06:44;;;;;;;5.90;3.10;;;;;;;23.27;41.17;101105.58;109021;1249;96884;-71
2024/04/13 10:09:19;;;;;;;8.40;3.70;;;;;;;23.29;41.09;101095.03;108806;1250;111374;-71
2024/04/13 10:12:01;;;;;;;8.40;3.30;;;;;;;23.35;40.99;101093.38;108952;1250;97044;-71
2024/04/13 10:14:37;;;;;;;9.90;3.10;;;;;;;23.47;41.22;101094.00;108935;1250;107674;-71
2024/04/13 10:17:12;;;;;;;6.90;3.20;;;;;;;23.61;41.26;101089.96;109029;1249;96403;-71
2024/04/13 10:20:03;;;;;;;8.80;3.50;;;;;;;23.78;40.94;101091.77;108930;1249;96345;-71
2024/04/13 10:22:34;;;;;;;10.70;3.60;;;;;;;23.82;41.06;101085.46;108978;1250;111305;-70
2024/04/13 10:25:08;;;;;;;5.60;3.20;;;;;;;23.90;40.77;101085.79;108926;1250;97478;-71
2024/04/13 10:27:41;;;;;;;7.10;3.00;;;;;;;23.80;40.20;101086.04;108913;1251;106217;-71
2024/04/13 10:30:24;;;;;;;5.80;2.90;;;;;;;23.74;40.21;101076.45;108943;1250;96565;-70
2024/04/13 10:32:58;;;;;;;9.00;3.10;;;;;;;23.81;40.13;101068.33;109003;1251;96887;-71
2024/04/13 10:35:29;;;;;;;6.40;3.20;;;;;;;23.81;39.44;101069.77;108950;1250;111276;-71
2024/04/13 10:38:00;;;;;;;7.00;3.20;;;;;;;23.74;39.54;101064.48;109006;1250;96275;-71
2024/04/13 10:40:37;;;;;;;8.20;2.80;;;;;;;23.80;39.34;101067.63;109056;1249;107818;-71
2024/04/13 10:43:11;;;;;;;7.50;3.20;;;;;;;23.88;39.41;101062.58;109003;1250;96226;-71
2024/04/13 10:45:42;;;;;;;7.00;2.90;;;;;;;23.90;39.45;101060.95;109125;1249;96282;-71
2024/04/13 10:48:13;;;;;;;6.00;2.90;;;;;;;23.87;39.36;101057.23;109039;1250;111839;-71
2024/04/13 10:50:45;;;;;;;8.70;2.90;;;;;;;23.80;38.95;101051.55;108950;1250;96476;-71
2024/04/13 10:53:16;;;;;;;3.50;2.50;;;;;;;23.62;38.58;101052.64;109035;1250;106355;-71
2024/04/13 10:55:49;;;;;;;7.80;3.00;;;;;;;23.41;38.50;101049.77;109025;1250;96312;-71
2024/04/13 10:58:20;;;;;;;4.90;3.00;;;;;;;23.29;38.93;101044.34;109033;1249;96310;-72
2024/04/13 11:00:54;;;;;;;8.50;3.00;;;;;;;23.16;38.99;101037.13;108988;1250;111512;-71
2024/04/13 11:03:36;;;;;;;5.40;2.90;;;;;;;22.95;39.01;101036.55;109055;1249;96674;-71
2024/04/13 11:06:08;;;;;;;4.50;2.70;;;;;;;22.78;39.00;101033.44;108970;1249;106412;-72
2024/04/13 11:08:43;;;;;;;6.10;3.00;;;;;;;22.67;39.09;101027.42;109008;1250;97025;-71
2024/04/13 11:11:14;;;;;;;6.30;3.00;;;;;;;22.57;39.10;101024.30;109018;1249;96234;-71
2024/04/13 11:13:48;;;;;;;7.50;3.10;;;;;;;22.48;39.07;101023.81;108961;1249;111472;-71
2024/04/13 11:16:41;;;;;;;7.20;3.10;;;;;;;22.42;39.20;101020.80;109092;1249;96393;-71
2024/04/13 11:19:32;;;;;;;4.70;2.70;;;;;;;22.49;39.08;101015.79;108937;1250;106049;-71
2024/04/13 11:22:09;;;;;;;5.50;2.70;;;;;;;22.70;39.03;101011.02;108881;1250;96259;-71
2024/04/13 11:24:40;;;;;;;4.30;2.70;;;;;;;22.89;39.16;101005.91;108870;1250;96289;-72
2024/04/13 11:27:12;;;;;;;5.10;2.80;;;;;;;22.98;39.01;101007.98;108917;1249;112747;-72
2024/04/13 11:29:46;;;;;;;8.90;3.10;;;;;;;23.04;38.86;101001.70;109035;1250;96279;-72
2024/04/13 11:32:17;;;;;;;6.30;3.10;;;;;;;23.10;38.84;101000.59;108932;1249;106451;-73
2024/04/13 11:34:48;;;;;;;4.10;2.90;;;;;;;23.09;38.83;100996.67;108924;1250;96262;-72
2024/04/13 11:37:29;;;;;;;5.80;3.00;;;;;;;23.08;38.75;100987.94;108966;1250;96244;-73
2024/04/13 11:40:00;;;;;;;4.30;2.80;;;;;;;23.25;38.42;100983.70;109065;1250;111298;-72
2024/04/13 11:42:41;;;;;;;4.90;2.90;;;;;;;23.44;38.20;100982.44;108831;1250;96523;-72
2024/04/13 11:45:23;;;;;;;6.60;2.80;;;;;;;23.48;37.92;100971.70;109095;1250;106403;-73
2024/04/13 11:47:55;;;;;;;6.20;2.90;;;;;;;23.52;37.68;100968.79;109140;1250;96836;-72
2024/04/13 11:50:29;;;;;;;5.10;2.70;;;;;;;23.53;37.69;100969.69;109023;1253;96782;-72
2024/04/13 11:53:11;;;;;;;5.00;2.80;;;;;;;23.67;37.24;100963.45;109097;1250;111251;-72
2024/04/13 11:55:42;;;;;;;4.40;2.50;;;;;;;23.76;37.74;100958.54;109129;1250;96557;-72
2024/04/13 11:58:23;;;;;;;7.80;3.10;;;;;;;23.84;37.17;100957.92;109064;1249;106836;-73
2024/04/13 12:01:05;;;;;;;7.10;2.60;;;;;;;23.69;37.18;100955.04;108814;1250;96205;-72
2024/04/13 12:03:36;;;;;;;4.00;2.50;;;;;;;23.51;37.13;100940.59;108863;1250;96670;-72
2024/04/13 12:06:18;;;;;;;6.50;2.80;;;;;;;23.49;37.15;100936.70;108894;1250;111228;-71
2024/04/13 12:08:59;;;;;;;7.60;3.00;;;;;;;23.51;36.78;100937.20;108862;1249;96384;-71
2024/04/13 12:11:32;;;;;;;8.00;2.60;;;;;;;23.47;36.66;100931.88;108935;1250;111616;-71
2024/04/13 12:14:06;;;;;;;5.60;2.90;;;;;;;23.52;36.71;100921.12;109067;1249;96284;-72
2024/04/13 12:16:40;;;;;;;4.20;2.60;;;;;;;23.55;36.80;100920.39;109089;1249;96287;-71
2024/04/13 12:19:20;;;;;;;8.60;2.90;;;;;;;23.56;36.25;100922.88;109125;1249;111295;-71
2024/04/13 12:21:51;;;;;;;5.50;2.90;;;;;;;23.49;36.33;100913.66;109027;1250;96660;-71
2024/04/13 12:24:35;;;;;;;8.50;2.90;;;;;;;23.50;36.52;100909.02;108976;1249;106446;-71
2024/04/13 12:27:06;;;;;;;7.20;2.70;;;;;;;23.50;36.52;100908.65;108887;1249;96215;-71
2024/04/13 12:29:40;;;;;;;8.80;3.80;;;;;;;23.58;36.73;100902.49;108916;1250;96202;-71
2024/04/13 12:32:11;;;;;;;6.00;3.00;;;;;;;23.73;36.78;100894.98;109101;1249;112370;-72